sensor_id;sensor_type;location;lat;lon;timestamp;P1;durP1;ratioP1;P2;durP2;ratioP2
32746;SDS011;19118;50.860;13.662;2023-04-08T00:03:48;36.22;;;19.02;;
32746;SDS011;19118;50.860;13.662;2023-04-08T00:08:49;34.65;;;18.23;;
32746;SDS011;19118;50.860;13.662;2023-04-08T00:13:50;34.70;;;17.38;;
32746;SDS011;19118;50.860;13.662;2023-04-08T00:18:50;34.63;;;18.42;;
32746;SDS011;19118;50.860;13.662;2023-04-08T00:23:51;33.05;;;17.73;;
32746;SDS011;19118;50.860;13.662;2023-04-08T00:28:51;31.50;;;16.88;;
32746;SDS011;19118;50.860;13.662;2023-04-08T00:33:51;29.33;;;15.80;;
32746;SDS011;19118;50.860;13.662;2023-04-08T00:38:52;32.50;;;17.98;;
32746;SDS011;19118;50.860;13.662;2023-04-08T00:43:53;34.13;;;16.27;;
32746;SDS011;19118;50.860;13.662;2023-04-08T00:48:53;30.02;;;16.77;;
32746;SDS011;19118;50.860;13.662;2023-04-08T00:53:54;32.25;;;15.25;;
32746;SDS011;19118;50.860;13.662;2023-04-08T00:58:54;27.73;;;14.10;;
32746;SDS011;19118;50.860;13.662;2023-04-08T01:09:09;30.92;;;14.20;;
32746;SDS011;19118;50.860;13.662;2023-04-08T01:14:11;25.83;;;12.32;;
32746;SDS011;19118;50.860;13.662;2023-04-08T01:19:17;24.67;;;12.60;;
32746;SDS011;19118;50.860;13.662;2023-04-08T01:24:27;27.60;;;12.25;;
32746;SDS011;19118;50.860;13.662;2023-04-08T01:29:30;23.52;;;11.65;;
32746;SDS011;19118;50.860;13.662;2023-04-08T01:34:31;27.67;;;12.05;;
32746;SDS011;19118;50.860;13.662;2023-04-08T01:39:34;28.08;;;13.05;;
32746;SDS011;19118;50.860;13.662;2023-04-08T01:44:34;29.83;;;13.55;;
32746;SDS011;19118;50.860;13.662;2023-04-08T01:49:37;24.45;;;12.38;;
32746;SDS011;19118;50.860;13.662;2023-04-08T01:54:38;29.40;;;13.65;;
32746;SDS011;19118;50.860;13.662;2023-04-08T01:59:38;25.38;;;13.18;;
32746;SDS011;19118;50.860;13.662;2023-04-08T02:04:40;35.08;;;13.18;;
32746;SDS011;19118;50.860;13.662;2023-04-08T02:09:41;52.67;;;13.07;;
32746;SDS011;19118;50.860;13.662;2023-04-08T02:14:41;28.65;;;13.93;;
32746;SDS011;19118;50.860;13.662;2023-04-08T02:24:42;57.17;;;14.32;;
32746;SDS011;19118;50.860;13.662;2023-04-08T02:29:44;52.85;;;14.38;;
32746;SDS011;19118;50.860;13.662;2023-04-08T02:34:46;44.70;;;13.05;;
32746;SDS011;19118;50.860;13.662;2023-04-08T02:39:47;32.25;;;12.40;;
32746;SDS011;19118;50.860;13.662;2023-04-08T02:44:48;35.47;;;11.95;;
32746;SDS011;19118;50.860;13.662;2023-04-08T02:49:48;48.70;;;12.60;;
32746;SDS011;19118;50.860;13.662;2023-04-08T02:54:52;23.15;;;10.63;;
32746;SDS011;19118;50.860;13.662;2023-04-08T02:59:52;27.73;;;9.27;;
32746;SDS011;19118;50.860;13.662;2023-04-08T03:04:52;22.50;;;8.85;;
32746;SDS011;19118;50.860;13.662;2023-04-08T03:09:53;20.50;;;9.07;;
32746;SDS011;19118;50.860;13.662;2023-04-08T03:14:54;23.98;;;9.38;;
32746;SDS011;19118;50.860;13.662;2023-04-08T03:19:55;21.40;;;8.50;;
32746;SDS011;19118;50.860;13.662;2023-04-08T03:24:55;20.53;;;7.70;;
32746;SDS011;19118;50.860;13.662;2023-04-08T03:29:55;15.60;;;6.53;;
32746;SDS011;19118;50.860;13.662;2023-04-08T03:34:56;16.00;;;6.72;;
32746;SDS011;19118;50.860;13.662;2023-04-08T03:39:57;13.43;;;4.88;;
32746;SDS011;19118;50.860;13.662;2023-04-08T03:44:57;11.60;;;5.30;;
32746;SDS011;19118;50.860;13.662;2023-04-08T03:49:58;12.77;;;5.28;;
32746;SDS011;19118;50.860;13.662;2023-04-08T03:54:58;15.13;;;5.22;;
32746;SDS011;19118;50.860;13.662;2023-04-08T03:59:58;13.15;;;5.95;;
32746;SDS011;19118;50.860;13.662;2023-04-08T04:04:59;14.50;;;5.70;;
32746;SDS011;19118;50.860;13.662;2023-04-08T04:09:59;14.95;;;5.80;;
32746;SDS011;19118;50.860;13.662;2023-04-08T04:14:59;15.47;;;6.50;;
32746;SDS011;19118;50.860;13.662;2023-04-08T04:20:02;20.98;;;7.53;;
32746;SDS011;19118;50.860;13.662;2023-04-08T04:25:03;22.13;;;5.97;;
32746;SDS011;19118;50.860;13.662;2023-04-08T04:30:04;31.83;;;7.20;;
32746;SDS011;19118;50.860;13.662;2023-04-08T04:35:05;25.17;;;7.05;;
32746;SDS011;19118;50.860;13.662;2023-04-08T04:40:05;62.83;;;8.73;;
32746;SDS011;19118;50.860;13.662;2023-04-08T04:45:06;71.07;;;8.90;;
32746;SDS011;19118;50.860;13.662;2023-04-08T04:50:08;31.65;;;7.63;;
32746;SDS011;19118;50.860;13.662;2023-04-08T04:55:09;48.55;;;8.45;;
32746;SDS011;19118;50.860;13.662;2023-04-08T05:00:09;65.55;;;9.15;;
32746;SDS011;19118;50.860;13.662;2023-04-08T05:05:10;414.08;;;22.42;;
32746;SDS011;19118;50.860;13.662;2023-04-08T05:10:10;220.93;;;14.73;;
32746;SDS011;19118;50.860;13.662;2023-04-08T05:15:10;238.13;;;18.87;;
32746;SDS011;19118;50.860;13.662;2023-04-08T05:20:11;234.73;;;16.67;;
32746;SDS011;19118;50.860;13.662;2023-04-08T05:25:11;251.00;;;17.90;;
32746;SDS011;19118;50.860;13.662;2023-04-08T05:30:12;162.27;;;14.93;;
32746;SDS011;19118;50.860;13.662;2023-04-08T05:35:12;198.32;;;13.68;;
32746;SDS011;19118;50.860;13.662;2023-04-08T05:40:13;189.65;;;14.57;;
32746;SDS011;19118;50.860;13.662;2023-04-08T05:45:13;316.73;;;18.58;;
32746;SDS011;19118;50.860;13.662;2023-04-08T05:50:15;216.88;;;18.80;;
32746;SDS011;19118;50.860;13.662;2023-04-08T05:55:15;278.75;;;15.65;;
32746;SDS011;19118;50.860;13.662;2023-04-08T06:00:15;335.73;;;19.70;;
32746;SDS011;19118;50.860;13.662;2023-04-08T06:05:16;231.88;;;16.35;;
32746;SDS011;19118;50.860;13.662;2023-04-08T06:10:18;288.58;;;18.77;;
32746;SDS011;19118;50.860;13.662;2023-04-08T06:15:18;295.93;;;17.07;;
32746;SDS011;19118;50.860;13.662;2023-04-08T06:20:18;190.93;;;17.15;;
32746;SDS011;19118;50.860;13.662;2023-04-08T06:25:19;105.47;;;15.77;;
32746;SDS011;19118;50.860;13.662;2023-04-08T06:30:19;87.38;;;14.38;;
32746;SDS011;19118;50.860;13.662;2023-04-08T06:35:20;54.83;;;16.15;;
32746;SDS011;19118;50.860;13.662;2023-04-08T06:40:21;53.45;;;14.30;;
32746;SDS011;19118;50.860;13.662;2023-04-08T06:45:21;58.23;;;15.40;;
32746;SDS011;19118;50.860;13.662;2023-04-08T06:50:22;44.28;;;12.55;;
32746;SDS011;19118;50.860;13.662;2023-04-08T06:55:22;44.90;;;12.53;;
32746;SDS011;19118;50.860;13.662;2023-04-08T07:00:22;38.25;;;12.60;;
32746;SDS011;19118;50.860;13.662;2023-04-08T07:05:23;52.87;;;12.77;;
32746;SDS011;19118;50.860;13.662;2023-04-08T07:10:23;201.52;;;20.77;;
32746;SDS011;19118;50.860;13.662;2023-04-08T07:15:23;30.83;;;14.07;;
32746;SDS011;19118;50.860;13.662;2023-04-08T07:20:24;38.70;;;14.17;;
32746;SDS011;19118;50.860;13.662;2023-04-08T07:25:25;32.13;;;14.00;;
32746;SDS011;19118;50.860;13.662;2023-04-08T07:30:25;27.30;;;13.23;;
32746;SDS011;19118;50.860;13.662;2023-04-08T07:35:25;30.08;;;14.05;;
32746;SDS011;19118;50.860;13.662;2023-04-08T07:40:26;30.30;;;14.98;;
32746;SDS011;19118;50.860;13.662;2023-04-08T07:45:27;28.55;;;14.77;;
32746;SDS011;19118;50.860;13.662;2023-04-08T07:50:27;19.52;;;11.40;;
32746;SDS011;19118;50.860;13.662;2023-04-08T07:55:31;20.93;;;11.43;;
32746;SDS011;19118;50.860;13.662;2023-04-08T08:00:32;22.50;;;12.38;;
32746;SDS011;19118;50.860;13.662;2023-04-08T08:05:34;21.80;;;12.60;;
32746;SDS011;19118;50.860;13.662;2023-04-08T08:10:35;16.52;;;9.77;;
32746;SDS011;19118;50.860;13.662;2023-04-08T08:15:35;25.97;;;17.93;;
32746;SDS011;19118;50.860;13.662;2023-04-08T08:20:35;16.23;;;8.90;;
32746;SDS011;19118;50.860;13.662;2023-04-08T08:25:35;15.60;;;8.87;;
32746;SDS011;19118;50.860;13.662;2023-04-08T08:30:36;13.82;;;8.18;;
32746;SDS011;19118;50.860;13.662;2023-04-08T08:35:37;11.52;;;7.70;;
32746;SDS011;19118;50.860;13.662;2023-04-08T08:40:37;12.47;;;7.10;;
32746;SDS011;19118;50.860;13.662;2023-04-08T08:45:41;11.80;;;7.78;;
32746;SDS011;19118;50.860;13.662;2023-04-08T08:50:42;12.90;;;9.10;;
32746;SDS011;19118;50.860;13.662;2023-04-08T08:55:43;13.25;;;8.15;;
32746;SDS011;19118;50.860;13.662;2023-04-08T09:00:43;12.10;;;7.85;;
32746;SDS011;19118;50.860;13.662;2023-04-08T09:05:54;14.18;;;8.35;;
32746;SDS011;19118;50.860;13.662;2023-04-08T09:11:09;14.63;;;9.13;;
32746;SDS011;19118;50.860;13.662;2023-04-08T09:16:15;13.88;;;8.68;;
32746;SDS011;19118;50.860;13.662;2023-04-08T09:21:18;14.70;;;8.30;;
32746;SDS011;19118;50.860;13.662;2023-04-08T09:26:23;14.50;;;8.52;;
32746;SDS011;19118;50.860;13.662;2023-04-08T09:31:24;12.82;;;8.27;;
32746;SDS011;19118;50.860;13.662;2023-04-08T09:36:27;11.27;;;7.65;;
32746;SDS011;19118;50.860;13.662;2023-04-08T09:41:27;93.35;;;41.58;;
32746;SDS011;19118;50.860;13.662;2023-04-08T09:46:30;12.93;;;8.57;;
32746;SDS011;19118;50.860;13.662;2023-04-08T09:51:35;13.82;;;8.43;;
32746;SDS011;19118;50.860;13.662;2023-04-08T09:57:00;12.75;;;8.02;;
32746;SDS011;19118;50.860;13.662;2023-04-08T10:02:08;15.23;;;9.75;;
32746;SDS011;19118;50.860;13.662;2023-04-08T10:07:11;14.82;;;9.02;;
32746;SDS011;19118;50.860;13.662;2023-04-08T10:12:13;15.23;;;8.75;;
32746;SDS011;19118;50.860;13.662;2023-04-08T10:17:23;15.85;;;9.38;;
32746;SDS011;19118;50.860;13.662;2023-04-08T10:27:37;15.07;;;9.23;;
32746;SDS011;19118;50.860;13.662;2023-04-08T10:32:40;18.88;;;10.32;;
32746;SDS011;19118;50.860;13.662;2023-04-08T10:37:41;18.10;;;10.73;;
32746;SDS011;19118;50.860;13.662;2023-04-08T10:42:41;19.33;;;10.77;;
32746;SDS011;19118;50.860;13.662;2023-04-08T10:47:41;22.38;;;12.73;;
32746;SDS011;19118;50.860;13.662;2023-04-08T10:52:48;23.67;;;13.93;;
32746;SDS011;19118;50.860;13.662;2023-04-08T10:57:51;21.75;;;12.52;;
32746;SDS011;19118;50.860;13.662;2023-04-08T11:02:51;23.83;;;14.10;;
32746;SDS011;19118;50.860;13.662;2023-04-08T11:07:52;28.60;;;14.32;;
32746;SDS011;19118;50.860;13.662;2023-04-08T11:12:52;27.83;;;14.30;;
32746;SDS011;19118;50.860;13.662;2023-04-08T11:17:54;28.10;;;13.77;;
32746;SDS011;19118;50.860;13.662;2023-04-08T11:22:54;27.30;;;13.50;;
32746;SDS011;19118;50.860;13.662;2023-04-08T11:27:54;21.63;;;12.98;;
32746;SDS011;19118;50.860;13.662;2023-04-08T11:32:55;20.92;;;12.88;;
32746;SDS011;19118;50.860;13.662;2023-04-08T11:37:57;21.42;;;11.75;;
32746;SDS011;19118;50.860;13.662;2023-04-08T11:42:57;22.55;;;11.77;;
32746;SDS011;19118;50.860;13.662;2023-04-08T11:47:58;18.73;;;11.57;;
32746;SDS011;19118;50.860;13.662;2023-04-08T11:52:58;20.23;;;11.53;;
32746;SDS011;19118;50.860;13.662;2023-04-08T11:58:02;22.05;;;11.68;;
32746;SDS011;19118;50.860;13.662;2023-04-08T12:03:04;20.15;;;12.55;;
32746;SDS011;19118;50.860;13.662;2023-04-08T12:08:05;20.23;;;12.20;;
32746;SDS011;19118;50.860;13.662;2023-04-08T12:13:06;37.90;;;18.65;;
32746;SDS011;19118;50.860;13.662;2023-04-08T12:18:06;30.15;;;17.75;;
32746;SDS011;19118;50.860;13.662;2023-04-08T12:23:06;32.53;;;18.57;;
32746;SDS011;19118;50.860;13.662;2023-04-08T12:28:07;33.10;;;17.95;;
32746;SDS011;19118;50.860;13.662;2023-04-08T12:33:08;31.88;;;18.67;;
32746;SDS011;19118;50.860;13.662;2023-04-08T12:38:09;30.88;;;17.00;;
32746;SDS011;19118;50.860;13.662;2023-04-08T12:43:09;39.17;;;16.87;;
32746;SDS011;19118;50.860;13.662;2023-04-08T12:48:10;28.10;;;16.17;;
32746;SDS011;19118;50.860;13.662;2023-04-08T12:53:10;34.63;;;19.13;;
32746;SDS011;19118;50.860;13.662;2023-04-08T12:58:10;35.13;;;19.70;;
32746;SDS011;19118;50.860;13.662;2023-04-08T13:03:11;41.72;;;21.77;;
32746;SDS011;19118;50.860;13.662;2023-04-08T13:08:12;39.88;;;21.33;;
32746;SDS011;19118;50.860;13.662;2023-04-08T13:13:13;43.95;;;23.92;;
32746;SDS011;19118;50.860;13.662;2023-04-08T13:18:13;48.27;;;25.17;;
32746;SDS011;19118;50.860;13.662;2023-04-08T13:23:14;44.00;;;25.23;;
32746;SDS011;19118;50.860;13.662;2023-04-08T13:28:16;41.17;;;21.75;;
32746;SDS011;19118;50.860;13.662;2023-04-08T13:33:17;39.55;;;19.83;;
32746;SDS011;19118;50.860;13.662;2023-04-08T13:38:17;36.47;;;19.63;;
32746;SDS011;19118;50.860;13.662;2023-04-08T13:43:18;33.65;;;18.92;;
32746;SDS011;19118;50.860;13.662;2023-04-08T13:48:18;30.25;;;16.17;;
32746;SDS011;19118;50.860;13.662;2023-04-08T13:53:18;31.23;;;16.92;;
32746;SDS011;19118;50.860;13.662;2023-04-08T13:58:19;28.33;;;16.57;;
32746;SDS011;19118;50.860;13.662;2023-04-08T14:03:20;33.95;;;18.00;;
32746;SDS011;19118;50.860;13.662;2023-04-08T14:08:21;31.70;;;18.00;;
32746;SDS011;19118;50.860;13.662;2023-04-08T14:13:24;28.23;;;16.52;;
32746;SDS011;19118;50.860;13.662;2023-04-08T14:18:24;29.63;;;15.07;;
32746;SDS011;19118;50.860;13.662;2023-04-08T14:23:25;28.40;;;15.82;;
32746;SDS011;19118;50.860;13.662;2023-04-08T14:28:25;25.73;;;14.33;;
32746;SDS011;19118;50.860;13.662;2023-04-08T14:33:26;26.45;;;14.95;;
32746;SDS011;19118;50.860;13.662;2023-04-08T14:38:26;22.65;;;14.02;;
32746;SDS011;19118;50.860;13.662;2023-04-08T14:43:26;28.42;;;15.88;;
32746;SDS011;19118;50.860;13.662;2023-04-08T14:48:27;26.05;;;14.70;;
32746;SDS011;19118;50.860;13.662;2023-04-08T14:53:29;31.67;;;16.50;;
32746;SDS011;19118;50.860;13.662;2023-04-08T14:58:30;32.05;;;17.60;;
32746;SDS011;19118;50.860;13.662;2023-04-08T15:03:30;30.77;;;17.92;;
32746;SDS011;19118;50.860;13.662;2023-04-08T15:08:30;34.22;;;19.48;;
32746;SDS011;19118;50.860;13.662;2023-04-08T15:13:31;40.95;;;22.40;;
32746;SDS011;19118;50.860;13.662;2023-04-08T15:18:31;35.58;;;20.08;;
32746;SDS011;19118;50.860;13.662;2023-04-08T15:23:31;35.47;;;19.47;;
32746;SDS011;19118;50.860;13.662;2023-04-08T15:28:32;35.97;;;19.63;;
32746;SDS011;19118;50.860;13.662;2023-04-08T15:33:32;33.50;;;19.30;;
32746;SDS011;19118;50.860;13.662;2023-04-08T15:38:32;35.97;;;18.90;;
32746;SDS011;19118;50.860;13.662;2023-04-08T15:43:33;37.50;;;20.05;;
32746;SDS011;19118;50.860;13.662;2023-04-08T15:48:33;61.27;;;34.70;;
32746;SDS011;19118;50.860;13.662;2023-04-08T15:53:34;40.15;;;22.70;;
32746;SDS011;19118;50.860;13.662;2023-04-08T15:58:34;39.97;;;20.38;;
32746;SDS011;19118;50.860;13.662;2023-04-08T16:03:35;36.53;;;20.00;;
32746;SDS011;19118;50.860;13.662;2023-04-08T16:08:36;36.00;;;20.50;;
32746;SDS011;19118;50.860;13.662;2023-04-08T16:13:36;41.75;;;22.75;;
32746;SDS011;19118;50.860;13.662;2023-04-08T16:18:39;36.70;;;21.63;;
32746;SDS011;19118;50.860;13.662;2023-04-08T16:23:41;44.97;;;25.45;;
32746;SDS011;19118;50.860;13.662;2023-04-08T16:28:41;55.57;;;28.47;;
32746;SDS011;19118;50.860;13.662;2023-04-08T16:33:42;56.28;;;30.73;;
32746;SDS011;19118;50.860;13.662;2023-04-08T16:38:42;72.50;;;37.25;;
32746;SDS011;19118;50.860;13.662;2023-04-08T16:43:43;50.03;;;27.85;;
32746;SDS011;19118;50.860;13.662;2023-04-08T16:48:43;47.67;;;27.35;;
32746;SDS011;19118;50.860;13.662;2023-04-08T16:53:44;48.22;;;27.92;;
32746;SDS011;19118;50.860;13.662;2023-04-08T16:58:44;46.40;;;27.08;;
32746;SDS011;19118;50.860;13.662;2023-04-08T17:03:44;41.10;;;24.13;;
32746;SDS011;19118;50.860;13.662;2023-04-08T17:08:46;42.05;;;24.70;;
32746;SDS011;19118;50.860;13.662;2023-04-08T17:13:47;40.78;;;23.48;;
32746;SDS011;19118;50.860;13.662;2023-04-08T17:18:48;45.22;;;25.08;;
32746;SDS011;19118;50.860;13.662;2023-04-08T17:23:50;44.90;;;24.67;;
32746;SDS011;19118;50.860;13.662;2023-04-08T17:28:51;43.95;;;24.17;;
32746;SDS011;19118;50.860;13.662;2023-04-08T17:33:51;46.10;;;25.40;;
32746;SDS011;19118;50.860;13.662;2023-04-08T17:38:51;48.38;;;24.52;;
32746;SDS011;19118;50.860;13.662;2023-04-08T17:43:52;44.58;;;25.67;;
32746;SDS011;19118;50.860;13.662;2023-04-08T17:48:52;48.13;;;26.25;;
32746;SDS011;19118;50.860;13.662;2023-04-08T17:53:52;50.20;;;26.57;;
32746;SDS011;19118;50.860;13.662;2023-04-08T17:58:53;48.30;;;25.50;;
32746;SDS011;19118;50.860;13.662;2023-04-08T18:03:53;45.80;;;24.87;;
32746;SDS011;19118;50.860;13.662;2023-04-08T18:08:53;81.03;;;37.72;;
32746;SDS011;19118;50.860;13.662;2023-04-08T18:13:54;130.80;;;55.93;;
32746;SDS011;19118;50.860;13.662;2023-04-08T18:18:54;52.92;;;27.73;;
32746;SDS011;19118;50.860;13.662;2023-04-08T18:23:54;45.25;;;25.63;;
32746;SDS011;19118;50.860;13.662;2023-04-08T18:28:55;44.38;;;25.15;;
32746;SDS011;19118;50.860;13.662;2023-04-08T18:33:55;55.00;;;27.38;;
32746;SDS011;19118;50.860;13.662;2023-04-08T18:38:56;50.33;;;27.05;;
32746;SDS011;19118;50.860;13.662;2023-04-08T18:43:56;47.95;;;25.67;;
32746;SDS011;19118;50.860;13.662;2023-04-08T18:48:57;53.47;;;28.08;;
32746;SDS011;19118;50.860;13.662;2023-04-08T18:53:58;48.25;;;25.48;;
32746;SDS011;19118;50.860;13.662;2023-04-08T18:58:58;53.77;;;27.93;;
32746;SDS011;19118;50.860;13.662;2023-04-08T19:03:58;49.80;;;27.85;;
32746;SDS011;19118;50.860;13.662;2023-04-08T19:08:59;55.57;;;29.40;;
32746;SDS011;19118;50.860;13.662;2023-04-08T19:13:59;99.30;;;46.47;;
32746;SDS011;19118;50.860;13.662;2023-04-08T19:18:59;57.33;;;32.73;;
32746;SDS011;19118;50.860;13.662;2023-04-08T19:24:00;54.50;;;28.50;;
32746;SDS011;19118;50.860;13.662;2023-04-08T19:29:00;75.67;;;39.53;;
32746;SDS011;19118;50.860;13.662;2023-04-08T19:34:01;87.68;;;44.42;;
32746;SDS011;19118;50.860;13.662;2023-04-08T19:39:01;80.87;;;41.83;;
32746;SDS011;19118;50.860;13.662;2023-04-08T19:44:02;58.83;;;30.85;;
32746;SDS011;19118;50.860;13.662;2023-04-08T19:49:03;55.40;;;29.38;;
32746;SDS011;19118;50.860;13.662;2023-04-08T19:54:03;42.85;;;25.58;;
32746;SDS011;19118;50.860;13.662;2023-04-08T19:59:03;43.65;;;23.20;;
32746;SDS011;19118;50.860;13.662;2023-04-08T20:04:04;44.83;;;24.05;;
32746;SDS011;19118;50.860;13.662;2023-04-08T20:09:04;49.90;;;23.83;;
32746;SDS011;19118;50.860;13.662;2023-04-08T20:14:05;48.92;;;25.35;;
32746;SDS011;19118;50.860;13.662;2023-04-08T20:19:05;49.47;;;23.95;;
32746;SDS011;19118;50.860;13.662;2023-04-08T20:24:06;44.58;;;23.85;;
32746;SDS011;19118;50.860;13.662;2023-04-08T20:29:06;50.72;;;25.98;;
32746;SDS011;19118;50.860;13.662;2023-04-08T20:34:06;42.58;;;22.80;;
32746;SDS011;19118;50.860;13.662;2023-04-08T20:39:10;42.38;;;23.90;;
32746;SDS011;19118;50.860;13.662;2023-04-08T20:44:11;42.42;;;22.05;;
32746;SDS011;19118;50.860;13.662;2023-04-08T20:49:11;45.33;;;22.02;;
32746;SDS011;19118;50.860;13.662;2023-04-08T20:54:12;40.53;;;22.87;;
32746;SDS011;19118;50.860;13.662;2023-04-08T20:59:12;44.30;;;22.88;;
32746;SDS011;19118;50.860;13.662;2023-04-08T21:04:12;46.20;;;23.17;;
32746;SDS011;19118;50.860;13.662;2023-04-08T21:09:13;48.53;;;24.57;;
32746;SDS011;19118;50.860;13.662;2023-04-08T21:14:13;47.95;;;24.33;;
32746;SDS011;19118;50.860;13.662;2023-04-08T21:19:14;48.58;;;25.80;;
32746;SDS011;19118;50.860;13.662;2023-04-08T21:24:14;52.75;;;26.75;;
32746;SDS011;19118;50.860;13.662;2023-04-08T21:29:15;46.92;;;23.83;;
32746;SDS011;19118;50.860;13.662;2023-04-08T21:34:15;56.40;;;26.40;;
32746;SDS011;19118;50.860;13.662;2023-04-08T21:39:15;48.65;;;24.55;;
32746;SDS011;19118;50.860;13.662;2023-04-08T21:44:16;48.70;;;25.45;;
32746;SDS011;19118;50.860;13.662;2023-04-08T21:49:16;49.67;;;26.20;;
32746;SDS011;19118;50.860;13.662;2023-04-08T21:54:16;52.60;;;27.00;;
32746;SDS011;19118;50.860;13.662;2023-04-08T21:59:17;53.03;;;26.53;;
32746;SDS011;19118;50.860;13.662;2023-04-08T22:04:18;55.95;;;25.98;;
32746;SDS011;19118;50.860;13.662;2023-04-08T22:09:18;59.35;;;27.45;;
32746;SDS011;19118;50.860;13.662;2023-04-08T22:14:19;56.73;;;26.73;;
32746;SDS011;19118;50.860;13.662;2023-04-08T22:19:19;56.83;;;27.38;;
32746;SDS011;19118;50.860;13.662;2023-04-08T22:24:19;61.05;;;28.23;;
32746;SDS011;19118;50.860;13.662;2023-04-08T22:29:20;70.35;;;29.67;;
32746;SDS011;19118;50.860;13.662;2023-04-08T22:34:20;60.25;;;28.92;;
32746;SDS011;19118;50.860;13.662;2023-04-08T22:39:21;58.47;;;28.73;;
32746;SDS011;19118;50.860;13.662;2023-04-08T22:44:21;67.00;;;29.90;;
32746;SDS011;19118;50.860;13.662;2023-04-08T22:49:21;64.78;;;29.50;;
32746;SDS011;19118;50.860;13.662;2023-04-08T22:54:22;62.00;;;29.93;;
32746;SDS011;19118;50.860;13.662;2023-04-08T22:59:22;71.65;;;31.98;;
32746;SDS011;19118;50.860;13.662;2023-04-08T23:04:22;59.20;;;28.37;;
32746;SDS011;19118;50.860;13.662;2023-04-08T23:09:23;66.15;;;31.33;;
32746;SDS011;19118;50.860;13.662;2023-04-08T23:14:25;64.38;;;30.98;;
32746;SDS011;19118;50.860;13.662;2023-04-08T23:19:26;71.60;;;32.22;;
32746;SDS011;19118;50.860;13.662;2023-04-08T23:24:26;71.03;;;33.35;;
32746;SDS011;19118;50.860;13.662;2023-04-08T23:29:26;75.47;;;31.95;;
32746;SDS011;19118;50.860;13.662;2023-04-08T23:34:27;66.53;;;32.10;;
32746;SDS011;19118;50.860;13.662;2023-04-08T23:39:27;72.22;;;33.30;;
32746;SDS011;19118;50.860;13.662;2023-04-08T23:44:27;75.93;;;33.00;;
32746;SDS011;19118;50.860;13.662;2023-04-08T23:49:28;69.47;;;31.90;;
32746;SDS011;19118;50.860;13.662;2023-04-08T23:54:29;64.68;;;29.98;;
32746;SDS011;19118;50.860;13.662;2023-04-08T23:59:31;67.60;;;31.52;;
